Time;durP1;ratioP1;P1;durP2;ratioP2;P2;SDS_P1;SDS_P2;PMS_P1;PMS_P2;Temp;Humidity;BMP_temperature;BMP_pressure;BME280_temperature;BME280_humidity;BME280_pressure;Samples;Min_cycle;Max_cycle;Signal;HPM_P1;HPM_P2
2022/05/28 00:00:57;;;;;;;9.07;2.00;;;12.40;71.40;;;;;;5092021;28;20085;-58
2022/05/28 00:03:23;;;;;;;7.75;2.00;;;12.40;71.10;;;;;;5102865;28;20072;-54
2022/05/28 00:05:50;;;;;;;4.57;2.30;;;12.40;72.80;;;;;;5112092;28;20028;-53
2022/05/28 00:08:16;;;;;;;6.40;2.78;;;12.40;71.70;;;;;;5112021;28;20024;-42
2022/05/28 00:10:43;;;;;;;5.28;1.90;;;12.40;74.30;;;;;;5112158;28;20045;-43
2022/05/28 00:13:09;;;;;;;9.63;2.33;;;12.40;73.10;;;;;;5102717;28;20020;-45
2022/05/28 00:15:35;;;;;;;8.85;2.35;;;12.30;72.60;;;;;;5091605;28;20377;-43
2022/05/28 00:18:01;;;;;;;4.38;2.05;;;12.30;74.30;;;;;;5091600;28;20107;-42
2022/05/28 00:20:28;;;;;;;8.13;2.63;;;12.20;74.50;;;;;;5098440;28;20414;-43
2022/05/28 00:22:54;;;;;;;7.95;2.45;;;12.10;74.40;;;;;;5109541;28;20475;-46
2022/05/28 00:25:21;;;;;;;5.13;2.00;;;12.10;76.10;;;;;;5111966;28;20070;-43
2022/05/28 00:27:46;;;;;;;7.00;2.55;;;12.00;75.00;;;;;;5111879;28;20016;-46
2022/05/28 00:30:15;;;;;;;10.38;2.78;;;12.00;75.30;;;;;;5099904;28;20034;-47
2022/05/28 00:32:41;;;;;;;5.68;2.00;;;11.90;74.60;;;;;;5077836;28;20027;-45
2022/05/28 00:35:10;;;;;;;7.70;2.40;;;11.80;75.10;;;;;;5111616;28;20027;-58
2022/05/28 00:37:36;;;;;;;9.35;2.35;;;11.70;76.20;;;;;;5111797;28;20023;-43
2022/05/28 00:40:04;;;;;;;7.80;2.33;;;11.60;76.70;;;;;;5111885;28;20046;-56
2022/05/28 00:42:30;;;;;;;8.60;2.50;;;11.50;77.50;;;;;;5109363;28;20375;-56
2022/05/28 00:44:56;;;;;;;8.50;2.25;;;11.50;76.80;;;;;;5091309;28;20035;-55
2022/05/28 00:47:22;;;;;;;7.22;2.08;;;11.60;78.60;;;;;;5091229;28;20044;-54
2022/05/28 00:49:48;;;;;;;10.32;2.40;;;11.60;76.10;;;;;;5073222;28;20040;-58
2022/05/28 00:52:16;;;;;;;7.53;2.25;;;11.60;76.80;;;;;;5090738;28;20151;-60
2022/05/28 00:54:45;;;;;;;10.15;2.33;;;11.70;75.80;;;;;;5089473;28;20035;-57
2022/05/28 00:57:12;;;;;;;6.68;2.22;;;11.60;77.00;;;;;;5091201;28;20078;-43
2022/05/28 00:59:38;;;;;;;7.38;2.20;;;11.60;75.50;;;;;;5091110;28;20020;-46
2022/05/28 01:02:15;;;;;;;5.82;2.00;;;11.60;75.70;;;;;;5091140;28;20028;-56
2022/05/28 01:04:50;;;;;;;6.72;2.45;;;11.60;76.40;;;;;;5110720;28;20028;-58
2022/05/28 01:07:34;;;;;;;4.70;1.85;;;11.60;75.60;;;;;;5111382;28;20488;-59
2022/05/28 01:10:10;;;;;;;8.30;2.70;;;11.60;75.10;;;;;;5111349;28;20038;-56
2022/05/28 01:12:39;;;;;;;6.82;2.30;;;11.50;74.00;;;;;;5109061;28;20031;-54
2022/05/28 01:15:28;;;;;;;5.78;2.20;;;11.60;76.70;;;;;;5090895;28;20384;-52
2022/05/28 01:18:00;;;;;;;7.22;2.80;;;11.60;75.80;;;;;;5090197;28;20501;-54
2022/05/28 01:20:37;;;;;;;9.80;2.08;;;11.60;77.70;;;;;;5090822;28;20476;-57
2022/05/28 01:23:24;;;;;;;8.55;2.25;;;11.50;76.30;;;;;;5095453;28;20373;-60
2022/05/28 01:26:06;;;;;;;7.18;2.22;;;11.40;77.00;;;;;;5111236;28;20028;-56
2022/05/28 01:28:40;;;;;;;5.78;2.63;;;11.40;76.10;;;;;;5111392;28;20024;-55
2022/05/28 01:31:07;;;;;;;7.40;2.40;;;11.40;77.80;;;;;;5111231;28;20036;-55
2022/05/28 01:33:35;;;;;;;10.10;3.30;;;11.30;76.10;;;;;;5110841;28;20028;-54
2022/05/28 01:36:05;;;;;;;9.48;2.75;;;11.20;77.00;;;;;;5111456;28;20028;-59
2022/05/28 01:38:34;;;;;;;10.00;2.30;;;11.20;75.10;;;;;;5111123;28;20023;-54
2022/05/28 01:41:02;;;;;;;8.00;2.55;;;11.10;73.90;;;;;;5111006;28;20088;-53
2022/05/28 01:43:29;;;;;;;7.80;2.65;;;11.10;76.50;;;;;;5110809;28;20026;-57
2022/05/28 01:45:55;;;;;;;9.43;2.30;;;11.10;78.30;;;;;;5111085;28;20030;-56
2022/05/28 01:48:22;;;;;;;6.45;1.95;;;11.10;76.90;;;;;;5111062;28;20383;-48
2022/05/28 01:50:51;;;;;;;8.20;2.45;;;11.00;78.30;;;;;;5110991;28;20052;-56
2022/05/28 01:56:06;;;;;;;7.55;2.55;;;10.90;79.50;;;;;;5091097;28;20043;-58
2022/05/28 01:58:31;;;;;;;5.63;2.20;;;10.80;79.40;;;;;;5090545;28;20103;-58
2022/05/28 02:00:59;;;;;;;7.75;2.33;;;10.80;78.20;;;;;;5090535;28;20098;-49
2022/05/28 02:03:27;;;;;;;4.43;2.30;;;10.80;77.60;;;;;;5079454;28;20477;-53
2022/05/28 02:05:54;;;;;;;5.93;2.40;;;10.70;78.90;;;;;;5114062;28;20472;-52
2022/05/28 02:08:20;;;;;;;8.25;2.55;;;10.70;78.90;;;;;;5109942;28;20477;-52
2022/05/28 02:10:52;;;;;;;9.20;2.40;;;10.70;79.50;;;;;;5098423;28;20039;-56
2022/05/28 02:13:23;;;;;;;7.72;2.50;;;10.70;78.00;;;;;;5108124;28;20552;-57
2022/05/28 02:15:54;;;;;;;8.50;2.35;;;10.70;79.10;;;;;;5094145;28;20089;-54
2022/05/28 02:18:29;;;;;;;4.43;1.73;;;10.70;80.90;;;;;;5094047;28;20050;-60
2022/05/28 02:21:09;;;;;;;5.68;2.08;;;10.70;79.60;;;;;;5093862;28;20055;-56
2022/05/28 02:23:50;;;;;;;5.68;2.00;;;10.70;79.40;;;;;;5101555;28;20020;-60
2022/05/28 02:26:22;;;;;;;4.70;1.80;;;10.70;79.20;;;;;;5099639;28;20439;-56
2022/05/28 02:28:48;;;;;;;7.78;2.22;;;10.60;80.80;;;;;;5093858;28;20039;-53
2022/05/28 02:31:16;;;;;;;5.95;1.92;;;10.60;80.60;;;;;;5093688;28;20543;-52
2022/05/28 02:33:42;;;;;;;8.60;2.53;;;10.60;80.60;;;;;;5101992;28;20077;-50
2022/05/28 02:36:08;;;;;;;4.70;2.00;;;10.50;80.40;;;;;;5113820;28;20092;-52
2022/05/28 02:38:33;;;;;;;6.57;1.88;;;10.50;79.70;;;;;;5113917;28;20016;-45
2022/05/28 02:40:59;;;;;;;6.35;1.70;;;10.50;80.70;;;;;;5114084;28;20119;-54
2022/05/28 02:43:25;;;;;;;7.60;2.00;;;10.40;79.70;;;;;;5107460;28;20546;-53
2022/05/28 02:45:51;;;;;;;7.60;1.65;;;10.50;80.60;;;;;;5093373;28;20058;-54
2022/05/28 02:48:17;;;;;;;7.70;1.98;;;10.50;78.80;;;;;;5093342;28;20387;-55
2022/05/28 02:50:43;;;;;;;7.40;2.25;;;10.50;78.90;;;;;;5092900;28;20044;-58
2022/05/28 02:53:11;;;;;;;6.63;1.88;;;10.60;80.30;;;;;;5096651;28;20020;-51
2022/05/28 02:55:37;;;;;;;7.25;1.88;;;10.60;77.90;;;;;;5113799;28;20031;-60
2022/05/28 02:58:02;;;;;;;4.57;1.55;;;10.60;79.00;;;;;;5113577;28;20050;-50
2022/05/28 03:00:28;;;;;;;8.57;1.90;;;10.60;77.40;;;;;;5113580;28;20031;-47
2022/05/28 03:02:54;;;;;;;6.72;1.83;;;10.70;79.70;;;;;;5112750;28;20392;-55
2022/05/28 03:05:24;;;;;;;7.32;1.75;;;10.70;79.00;;;;;;5095337;28;20073;-55
2022/05/28 03:07:50;;;;;;;5.25;1.55;;;10.70;78.70;;;;;;5113367;28;20020;-46
2022/05/28 03:10:16;;;;;;;7.93;1.80;;;10.80;77.70;;;;;;5113225;28;20034;-52
2022/05/28 03:12:42;;;;;;;5.05;1.70;;;10.80;78.80;;;;;;5113179;28;20099;-46
2022/05/28 03:15:08;;;;;;;3.58;1.50;;;10.80;80.10;;;;;;5092940;28;20032;-43
2022/05/28 03:17:34;;;;;;;5.82;1.83;;;10.80;79.20;;;;;;5092712;28;20106;-46
2022/05/28 03:20:01;;;;;;;6.40;1.75;;;10.80;77.30;;;;;;5092712;28;20413;-44
2022/05/28 03:22:27;;;;;;;6.90;1.50;;;10.80;78.10;;;;;;5092925;28;20032;-44
2022/05/28 03:24:53;;;;;;;7.85;1.70;;;10.70;78.50;;;;;;5090059;28;20384;-46
2022/05/28 03:27:19;;;;;;;5.90;1.40;;;10.70;77.00;;;;;;5113076;28;20031;-53
2022/05/28 03:29:45;;;;;;;2.90;1.20;;;10.80;76.90;;;;;;5112939;28;20028;-49
2022/05/28 03:32:10;;;;;;;6.32;1.60;;;10.80;79.10;;;;;;5094701;28;20043;-58
2022/05/28 03:34:36;;;;;;;5.25;1.35;;;10.80;78.70;;;;;;5097248;28;20028;-48
2022/05/28 03:37:02;;;;;;;6.57;1.50;;;10.80;77.70;;;;;;5092415;28;20062;-55
2022/05/28 03:39:28;;;;;;;6.60;1.60;;;10.70;78.60;;;;;;5092392;28;20115;-50
2022/05/28 03:41:54;;;;;;;8.80;1.90;;;10.80;79.80;;;;;;5092377;28;20725;-52
2022/05/28 03:44:20;;;;;;;5.53;1.30;;;10.70;79.90;;;;;;5103506;28;20035;-47
2022/05/28 03:46:45;;;;;;;5.85;1.83;;;10.70;77.40;;;;;;5112195;28;20034;-56
2022/05/28 03:49:25;;;;;;;7.15;1.48;;;10.60;79.30;;;;;;5112475;28;20023;-53
2022/05/28 03:51:51;;;;;;;6.72;1.85;;;10.70;79.30;;;;;;5112231;28;20055;-46
2022/05/28 03:54:16;;;;;;;5.30;1.83;;;10.60;79.00;;;;;;5100240;28;20095;-54
2022/05/28 03:56:43;;;;;;;9.48;1.90;;;10.60;78.60;;;;;;5092140;28;20073;-55
2022/05/28 03:59:09;;;;;;;6.35;1.30;;;10.60;79.30;;;;;;5112114;28;20020;-51
2022/05/28 04:01:36;;;;;;;4.45;1.77;;;10.60;79.70;;;;;;5098435;28;20035;-56
2022/05/28 04:04:02;;;;;;;6.40;1.77;;;10.60;80.00;;;;;;5091993;28;20531;-55
2022/05/28 04:06:28;;;;;;;5.00;1.60;;;10.50;78.40;;;;;;5092016;28;20043;-52
2022/05/28 04:08:53;;;;;;;5.78;1.63;;;10.60;81.30;;;;;;5093304;28;20392;-44
2022/05/28 04:11:19;;;;;;;4.28;1.38;;;10.60;80.10;;;;;;5091426;28;20427;-47
2022/05/28 04:13:45;;;;;;;5.85;1.45;;;10.60;81.70;;;;;;5091132;28;20035;-55
2022/05/28 04:16:13;;;;;;;5.38;1.60;;;10.60;81.40;;;;;;5091202;28;20036;-52
2022/05/28 04:18:40;;;;;;;5.78;1.58;;;10.60;80.20;;;;;;5092048;28;20023;-54
2022/05/28 04:21:06;;;;;;;7.88;1.90;;;10.60;82.30;;;;;;5091335;28;20095;-54
2022/05/28 04:23:31;;;;;;;5.57;1.40;;;10.60;81.20;;;;;;5091580;28;20071;-48
2022/05/28 04:25:57;;;;;;;9.05;1.75;;;10.60;80.80;;;;;;5091508;28;20051;-49
2022/05/28 04:28:23;;;;;;;5.47;1.50;;;10.60;79.80;;;;;;5103851;28;20045;-56
2022/05/28 04:30:48;;;;;;;8.32;1.88;;;10.60;80.00;;;;;;5093839;28;20028;-45
2022/05/28 04:33:14;;;;;;;7.70;1.42;;;10.70;80.80;;;;;;5111809;28;20424;-55
2022/05/28 04:35:40;;;;;;;2.92;1.40;;;10.70;80.50;;;;;;5111768;28;20032;-54
2022/05/28 04:38:05;;;;;;;6.78;1.80;;;10.70;82.10;;;;;;5101168;28;20046;-49
2022/05/28 04:40:31;;;;;;;5.93;1.65;;;10.80;80.80;;;;;;5091483;28;20055;-49
2022/05/28 04:42:56;;;;;;;3.85;1.42;;;10.80;82.00;;;;;;5091864;28;20063;-49
2022/05/28 04:45:22;;;;;;;7.18;1.70;;;10.80;78.80;;;;;;5091320;28;20024;-57
2022/05/28 04:47:48;;;;;;;4.95;1.52;;;10.80;79.80;;;;;;5098628;28;20039;-45
2022/05/28 04:50:14;;;;;;;7.60;1.38;;;10.80;80.60;;;;;;5111408;28;20019;-57
2022/05/28 04:52:41;;;;;;;7.30;1.70;;;10.90;81.80;;;;;;5072191;28;20052;-55
2022/05/28 04:55:10;;;;;;;6.68;1.48;;;10.90;81.50;;;;;;5071141;28;20081;-51
2022/05/28 04:57:36;;;;;;;4.45;1.50;;;10.90;82.10;;;;;;5064857;28;20029;-52
2022/05/28 05:00:05;;;;;;;4.43;1.45;;;10.90;81.60;;;;;;5051183;28;20032;-46
2022/05/28 05:02:31;;;;;;;7.10;1.70;;;10.90;81.50;;;;;;5051010;28;20036;-59
2022/05/28 05:04:57;;;;;;;4.70;1.40;;;10.90;82.30;;;;;;5051083;28;20545;-55
2022/05/28 05:07:24;;;;;;;4.50;1.58;;;10.80;82.00;;;;;;5054762;28;20043;-60
2022/05/28 05:09:50;;;;;;;5.60;1.77;;;10.80;82.20;;;;;;5070991;28;20358;-50
2022/05/28 05:12:16;;;;;;;5.55;1.30;;;10.80;80.10;;;;;;5070829;28;20060;-54
2022/05/28 05:14:42;;;;;;;8.73;1.55;;;10.80;81.20;;;;;;5070946;28;20025;-52
2022/05/28 05:17:07;;;;;;;5.38;1.50;;;10.70;80.20;;;;;;5069290;28;20028;-56
2022/05/28 05:19:33;;;;;;;4.85;1.40;;;10.70;81.00;;;;;;5050765;28;20374;-60
2022/05/28 05:21:59;;;;;;;4.03;1.52;;;10.70;82.90;;;;;;5050729;28;20421;-52
2022/05/28 05:24:25;;;;;;;9.00;1.83;;;10.70;80.80;;;;;;5050697;28;20083;-55
2022/05/28 05:26:50;;;;;;;7.93;1.80;;;10.70;83.00;;;;;;5050693;28;20056;-57
2022/05/28 05:29:16;;;;;;;10.20;1.80;;;10.70;81.50;;;;;;5069721;28;20020;-48
2022/05/28 05:31:42;;;;;;;6.82;1.52;;;10.80;82.00;;;;;;5070741;28;20086;-60
2022/05/28 05:34:08;;;;;;;6.30;1.70;;;10.80;81.90;;;;;;5070652;28;20024;-50
2022/05/28 05:36:34;;;;;;;9.30;1.58;;;10.90;80.40;;;;;;5070814;28;20021;-59
2022/05/28 05:39:00;;;;;;;4.75;1.25;;;11.10;81.70;;;;;;5070597;28;20051;-47
2022/05/28 05:41:26;;;;;;;6.65;1.80;;;11.20;83.60;;;;;;5074293;28;20087;-57
2022/05/28 05:43:52;;;;;;;4.28;1.10;;;11.40;79.40;;;;;;5073089;28;20028;-51
2022/05/28 05:46:18;;;;;;;8.82;1.60;;;11.70;78.40;;;;;;5074326;28;20127;-52
2022/05/28 05:48:43;;;;;;;8.10;1.60;;;12.20;80.10;;;;;;5059741;28;20048;-57
2022/05/28 05:51:16;;;;;;;6.97;1.50;;;12.80;78.20;;;;;;5064011;28;20059;-51
2022/05/28 05:53:42;;;;;;;6.03;1.35;;;13.70;75.50;;;;;;5094441;28;20043;-57
2022/05/28 05:56:09;;;;;;;8.55;1.55;;;14.60;71.00;;;;;;5093915;28;20032;-53
2022/05/28 05:58:35;;;;;;;6.35;1.92;;;15.40;68.00;;;;;;5107401;28;20035;-52
2022/05/28 06:01:03;;;;;;;5.13;1.50;;;16.20;64.60;;;;;;5106269;28;20030;-57
2022/05/28 06:03:29;;;;;;;4.15;1.17;;;17.00;62.70;;;;;;5094231;28;20035;-51
2022/05/28 06:05:57;;;;;;;4.35;1.20;;;17.70;58.80;;;;;;5098487;28;20541;-52
2022/05/28 06:08:22;;;;;;;7.35;1.77;;;18.30;58.40;;;;;;5095914;28;20043;-54
2022/05/28 06:10:48;;;;;;;5.65;1.60;;;18.90;52.60;;;;;;5097146;28;20032;-56
2022/05/28 06:13:13;;;;;;;5.90;1.30;;;19.20;52.30;;;;;;5104635;28;20032;-51
2022/05/28 06:15:39;;;;;;;6.10;1.48;;;19.70;52.30;;;;;;5104676;28;20502;-56
2022/05/28 06:18:05;;;;;;;5.60;1.60;;;20.00;52.80;;;;;;5097167;28;20028;-60
2022/05/28 06:20:31;;;;;;;4.57;1.25;;;20.20;52.60;;;;;;5106092;28;20027;-59
2022/05/28 06:22:56;;;;;;;5.72;1.35;;;20.50;48.40;;;;;;5093779;28;20031;-51
2022/05/28 06:25:22;;;;;;;6.63;1.50;;;21.00;51.10;;;;;;5094042;28;20078;-50
2022/05/28 06:27:48;;;;;;;7.68;1.45;;;20.90;46.10;;;;;;5099138;28;20031;-54
2022/05/28 06:30:14;;;;;;;5.70;1.60;;;21.20;50.40;;;;;;5102807;28;20093;-52
2022/05/28 06:32:39;;;;;;;7.30;1.60;;;21.60;49.00;;;;;;5087670;28;20426;-59
2022/05/28 06:35:05;;;;;;;5.20;1.10;;;22.10;48.20;;;;;;5095072;28;20031;-56
2022/05/28 06:37:31;;;;;;;4.85;1.23;;;22.00;46.70;;;;;;5101142;28;20027;-57
2022/05/28 06:39:56;;;;;;;5.68;1.23;;;22.40;47.60;;;;;;5113953;28;20034;-52
2022/05/28 06:42:22;;;;;;;6.53;1.13;;;22.50;41.00;;;;;;5101005;28;20423;-48
2022/05/28 06:44:49;;;;;;;5.07;1.23;;;22.30;44.60;;;;;;5101689;28;20122;-60
2022/05/28 06:47:14;;;;;;;5.68;1.30;;;22.70;43.60;;;;;;5090267;28;20080;-57
2022/05/28 06:49:40;;;;;;;5.45;1.20;;;22.80;44.30;;;;;;5107665;28;20027;-57
2022/05/28 06:52:06;;;;;;;3.65;1.10;;;22.70;45.70;;;;;;5103198;28;20089;-52
2022/05/28 06:54:32;;;;;;;7.32;1.38;;;23.30;41.60;;;;;;5103329;28;20066;-56
2022/05/28 06:56:57;;;;;;;5.45;1.15;;;23.70;42.10;;;;;;5107626;28;20477;-59
2022/05/28 06:59:23;;;;;;;6.32;1.40;;;23.90;42.80;;;;;;5096406;28;20024;-59
2022/05/28 07:01:49;;;;;;;6.57;1.55;;;24.00;41.00;;;;;;5105360;28;20065;-51
2022/05/28 07:04:14;;;;;;;5.38;1.05;;;24.00;39.40;;;;;;5107293;28;20052;-58
2022/05/28 07:06:40;;;;;;;4.80;1.05;;;24.30;40.50;;;;;;5105661;28;20384;-54
2022/05/28 07:09:05;;;;;;;6.13;1.33;;;24.50;40.70;;;;;;5093106;28;20032;-56
2022/05/28 07:11:32;;;;;;;7.50;1.55;;;24.30;40.80;;;;;;5096189;28;20407;-56
2022/05/28 07:13:57;;;;;;;6.45;1.30;;;24.60;38.20;;;;;;5112573;28;20102;-53
2022/05/28 07:16:23;;;;;;;3.53;1.00;;;24.80;36.30;;;;;;5105900;28;20107;-54
2022/05/28 07:18:49;;;;;;;9.10;1.40;;;24.70;38.00;;;;;;5096713;28;20024;-53
2022/05/28 07:21:14;;;;;;;6.20;1.30;;;25.20;39.20;;;;;;5092013;28;20062;-51
2022/05/28 07:23:40;;;;;;;7.25;1.45;;;25.50;42.10;;;;;;5092383;28;20024;-52
2022/05/28 07:26:09;;;;;;;6.07;1.45;;;25.60;34.70;;;;;;5092756;28;20051;-57
2022/05/28 07:28:36;;;;;;;5.35;1.33;;;25.80;37.90;;;;;;5083657;28;20023;-60
2022/05/28 07:31:06;;;;;;;6.05;1.60;;;25.80;34.40;;;;;;5111418;28;20042;-56
2022/05/28 07:33:38;;;;;;;5.07;1.27;;;26.00;37.70;;;;;;5110873;28;20016;-54
2022/05/28 07:36:05;;;;;;;4.68;1.10;;;26.40;36.90;;;;;;5110752;28;20015;-56
2022/05/28 07:38:32;;;;;;;5.20;1.50;;;26.60;35.70;;;;;;5100532;28;20377;-51
2022/05/28 07:41:21;;;;;;;3.97;1.30;;;26.90;32.60;;;;;;5089200;28;20499;-52
2022/05/28 07:43:48;;;;;;;4.63;1.20;;;26.90;35.60;;;;;;5088950;28;20039;-56
2022/05/28 07:46:16;;;;;;;5.47;1.20;;;26.80;31.60;;;;;;5089786;28;20388;-49
2022/05/28 07:48:42;;;;;;;6.35;1.40;;;27.00;34.40;;;;;;5101571;28;20027;-52
2022/05/28 07:51:08;;;;;;;3.75;0.95;;;27.70;34.90;;;;;;5110585;28;20051;-52
2022/05/28 07:53:35;;;;;;;5.15;1.00;;;27.90;34.40;;;;;;5110900;28;20024;-56
2022/05/28 07:56:02;;;;;;;10.30;1.50;;;28.50;34.10;;;;;;5093609;28;20501;-43
2022/05/28 07:58:27;;;;;;;13.98;1.50;;;28.50;33.00;;;;;;5103080;28;20059;-43
2022/05/28 08:00:53;;;;;;;3.85;0.80;;;28.70;33.50;;;;;;5073865;28;20459;-42
2022/05/28 08:03:19;;;;;;;4.95;1.10;;;29.30;34.50;;;;;;5091132;28;20032;-42
2022/05/28 08:05:49;;;;;;;5.35;1.30;;;29.10;32.60;;;;;;5074106;28;20032;-43
2022/05/28 08:08:16;;;;;;;5.32;1.20;;;29.20;31.20;;;;;;5098680;28;20041;-46
2022/05/28 08:10:42;;;;;;;6.07;1.10;;;29.70;31.00;;;;;;5112133;28;20035;-43
2022/05/28 08:13:14;;;;;;;2.42;0.90;;;29.30;29.60;;;;;;5112152;28;20106;-42
2022/05/28 08:15:41;;;;;;;5.95;1.10;;;29.60;34.00;;;;;;5112023;28;20031;-47
2022/05/28 08:18:09;;;;;;;5.28;0.77;;;29.80;30.70;;;;;;5106032;28;20032;-42
2022/05/28 08:23:19;;;;;;;3.10;0.77;;;29.40;31.60;;;;;;5092020;28;20429;-45
2022/05/28 08:25:46;;;;;;;4.55;1.15;;;29.70;32.00;;;;;;5091579;28;20024;-57
2022/05/28 08:28:13;;;;;;;6.75;1.40;;;29.70;31.60;;;;;;5097258;28;20433;-46
2022/05/28 08:30:39;;;;;;;8.45;1.20;;;29.60;30.20;;;;;;5111568;28;20036;-54
2022/05/28 08:33:06;;;;;;;10.55;1.77;;;29.20;31.00;;;;;;5111973;28;20054;-54
2022/05/28 08:35:33;;;;;;;5.10;1.13;;;29.00;32.60;;;;;;5111689;28;20388;-56
2022/05/28 08:38:04;;;;;;;4.30;1.00;;;29.00;33.40;;;;;;5107412;28;20499;-52
2022/05/28 08:40:33;;;;;;;5.55;0.90;;;28.50;28.90;;;;;;5091284;28;20024;-59
2022/05/28 08:43:00;;;;;;;3.83;0.80;;;27.90;29.10;;;;;;5091536;28;20028;-49
2022/05/28 08:45:26;;;;;;;5.05;1.20;;;28.60;32.70;;;;;;5091433;28;20035;-52
2022/05/28 08:47:55;;;;;;;4.30;1.00;;;28.80;31.90;;;;;;5093998;28;20035;-53
2022/05/28 08:50:21;;;;;;;4.80;1.20;;;28.30;30.60;;;;;;5111663;28;20095;-58
2022/05/28 08:52:55;;;;;;;4.72;1.00;;;27.50;33.20;;;;;;5111293;28;20075;-58
2022/05/28 08:55:24;;;;;;;4.22;1.05;;;27.20;29.30;;;;;;5111611;28;20490;-52
2022/05/28 08:57:58;;;;;;;;;;;26.90;30.50;;;;;;5109397;28;20027;-44
2022/05/28 09:00:33;;;;;;;4.38;0.90;;;26.70;32.40;;;;;;5091207;28;19908;-55
2022/05/28 09:03:16;;;;;;;4.20;1.00;;;27.10;32.80;;;;;;5091234;28;20036;-60
2022/05/28 09:06:06;;;;;;;3.20;1.00;;;27.00;32.80;;;;;;5091034;28;20480;-57
2022/05/28 09:08:38;;;;;;;6.25;1.08;;;27.10;32.60;;;;;;5098959;28;20035;-43
2022/05/28 09:11:13;;;;;;;4.25;1.17;;;26.70;32.80;;;;;;5111200;28;20031;-49
2022/05/28 09:13:45;;;;;;;4.93;1.20;;;26.10;33.80;;;;;;5112790;28;20031;-51
2022/05/28 09:16:24;;;;;;;4.35;0.95;;;26.20;36.50;;;;;;5115527;28;20534;-55
2022/05/28 09:18:52;;;;;;;7.50;1.20;;;26.10;33.60;;;;;;5104681;28;20035;-44
2022/05/28 09:21:17;;;;;;;5.20;0.98;;;25.60;36.70;;;;;;5095122;28;20031;-46
2022/05/28 09:23:51;;;;;;;4.65;1.00;;;26.00;34.00;;;;;;5095015;28;20020;-56
2022/05/28 09:26:29;;;;;;;4.22;1.08;;;25.80;38.70;;;;;;5094880;28;20028;-54
2022/05/28 09:29:03;;;;;;;15.23;1.30;;;26.20;34.90;;;;;;5105495;28;20103;-48
2022/05/28 09:31:55;;;;;;;3.00;0.90;;;26.40;31.50;;;;;;5115137;28;20059;-59
2022/05/28 09:34:44;;;;;;;3.55;0.93;;;26.80;35.10;;;;;;5114612;28;20120;-59
2022/05/28 09:37:15;;;;;;;4.07;1.02;;;26.60;33.20;;;;;;5115223;28;20042;-56
2022/05/28 09:39:57;;;;;;;5.95;1.30;;;26.10;31.60;;;;;;5097876;28;20484;-51
2022/05/28 09:42:26;;;;;;;4.05;0.88;;;26.70;34.60;;;;;;5094521;28;20024;-58
2022/05/28 09:45:09;;;;;;;4.47;1.10;;;27.00;32.40;;;;;;5094527;28;20078;-54
2022/05/28 09:47:46;;;;;;;5.07;1.00;;;26.90;33.50;;;;;;5094803;28;20040;-59
2022/05/28 09:50:30;;;;;;;3.40;1.00;;;26.90;32.20;;;;;;5094508;28;20020;-58
2022/05/28 09:56:19;;;;;;;4.97;0.98;;;27.30;32.90;;;;;;5094547;28;20039;-60
2022/05/28 09:58:45;;;;;;;3.88;0.98;;;27.30;30.10;;;;;;5097663;28;20043;-55
2022/05/28 10:01:23;;;;;;;3.90;1.08;;;26.70;33.10;;;;;;5114603;28;20100;-58
2022/05/28 10:06:53;;;;;;;7.60;1.63;;;27.60;33.50;;;;;;5094889;28;20035;-53
2022/05/28 10:09:33;;;;;;;4.82;0.80;;;26.30;30.70;;;;;;5114372;28;20035;-55
2022/05/28 10:12:14;;;;;;;6.60;1.10;;;26.40;35.10;;;;;;5110845;28;20043;-53
2022/05/28 10:14:39;;;;;;;5.00;1.17;;;26.60;36.50;;;;;;5094055;28;20024;-56
2022/05/28 10:17:05;;;;;;;5.75;1.17;;;27.00;31.10;;;;;;5097846;28;20039;-54
2022/05/28 10:19:44;;;;;;;5.80;1.30;;;26.60;31.40;;;;;;5114324;28;20422;-51
2022/05/28 10:22:18;;;;;;;4.32;1.00;;;25.40;31.00;;;;;;5109724;28;20024;-60
2022/05/28 10:24:48;;;;;;;5.32;1.15;;;23.90;35.10;;;;;;5092892;28;20388;-55
2022/05/28 10:27:34;;;;;;;5.47;1.23;;;23.80;39.00;;;;;;5093838;28;20042;-52
2022/05/28 10:30:05;;;;;;;5.13;1.20;;;23.90;35.20;;;;;;5093688;28;20525;-58
2022/05/28 10:32:49;;;;;;;9.57;1.23;;;23.10;38.10;;;;;;5101071;28;20043;-61
2022/05/28 10:35:23;;;;;;;4.78;1.10;;;23.30;37.30;;;;;;5114010;28;20034;-60
2022/05/28 10:37:49;;;;;;;5.28;1.20;;;23.00;39.70;;;;;;5113848;28;20055;-56
2022/05/28 10:40:26;;;;;;;7.00;1.17;;;22.30;37.50;;;;;;5101818;28;20035;-60
2022/05/28 10:42:58;;;;;;;4.93;1.23;;;21.90;41.10;;;;;;5095170;28;20024;-54
2022/05/28 10:45:31;;;;;;;4.95;1.13;;;21.50;42.70;;;;;;5094171;28;20031;-53
2022/05/28 10:48:15;;;;;;;4.40;1.13;;;21.60;42.30;;;;;;5097205;28;20027;-55
2022/05/28 10:51:12;;;;;;;5.18;1.20;;;21.50;39.30;;;;;;5099208;28;20028;-57
2022/05/28 10:54:32;;;;;;;4.13;1.38;;;21.10;40.40;;;;;;5100110;28;20112;-54
2022/05/28 10:57:08;;;;;;;4.25;1.25;;;21.20;49.10;;;;;;5071444;28;20032;-60
2022/05/28 10:59:47;;;;;;;5.10;1.23;;;21.30;42.70;;;;;;5107144;28;20468;-51
2022/05/28 11:02:18;;;;;;;8.57;1.50;;;21.50;45.50;;;;;;5106608;28;20036;-53
2022/05/28 11:05:07;;;;;;;7.00;1.38;;;21.80;42.30;;;;;;5093142;28;20031;-60
2022/05/28 11:07:52;;;;;;;6.05;1.05;;;22.10;42.90;;;;;;5043274;28;20131;-60
2022/05/28 11:10:32;;;;;;;3.97;1.02;;;22.70;43.40;;;;;;5092484;28;20032;-57
2022/05/28 11:13:12;;;;;;;5.82;0.95;;;22.80;44.50;;;;;;5098664;28;20089;-59
2022/05/28 11:15:59;;;;;;;5.55;1.20;;;22.90;41.40;;;;;;5095189;28;20035;-57
2022/05/28 11:18:49;;;;;;;7.32;1.00;;;23.30;43.30;;;;;;5095931;28;20488;-54
2022/05/28 11:21:21;;;;;;;3.55;0.95;;;23.50;38.60;;;;;;5094184;28;20115;-60
2022/05/28 11:24:17;;;;;;;5.10;1.02;;;24.10;39.50;;;;;;5090778;28;20028;-51
2022/05/28 11:26:51;;;;;;;6.28;1.05;;;24.60;39.30;;;;;;5091978;28;20503;-58
2022/05/28 11:29:27;;;;;;;4.20;1.38;;;25.10;37.40;;;;;;5090690;28;20036;-55
2022/05/28 11:31:56;;;;;;;6.07;1.15;;;25.10;36.20;;;;;;5092456;28;20082;-51
2022/05/28 11:34:33;;;;;;;5.50;1.43;;;24.60;37.40;;;;;;5091812;28;20024;-50
2022/05/28 11:37:30;;;;;;;6.05;1.17;;;23.80;39.00;;;;;;5091885;28;20024;-51
2022/05/28 11:40:02;;;;;;;5.22;1.33;;;24.00;36.60;;;;;;5080522;28;20479;-53
2022/05/28 11:42:45;;;;;;;7.35;1.15;;;23.10;40.70;;;;;;5092084;28;20024;-60
2022/05/28 11:45:31;;;;;;;4.03;1.02;;;23.70;43.50;;;;;;5091707;28;20020;-53
2022/05/28 11:48:24;;;;;;;3.67;1.00;;;23.80;42.70;;;;;;5080607;28;20068;-59
2022/05/28 11:53:52;;;;;;;4.15;1.40;;;24.60;40.20;;;;;;5110397;28;20047;-56
2022/05/28 11:56:28;;;;;;;3.55;1.25;;;24.40;38.00;;;;;;5112349;28;20023;-60
2022/05/28 11:59:20;;;;;;;5.15;1.15;;;24.10;39.10;;;;;;5112592;28;20027;-56
2022/05/28 12:01:59;;;;;;;6.95;1.38;;;24.10;39.00;;;;;;5107173;28;20012;-58
2022/05/28 12:04:25;;;;;;;5.82;1.20;;;23.60;38.80;;;;;;5093683;28;20064;-58
2022/05/28 12:07:31;;;;;;;4.78;0.82;;;23.60;40.80;;;;;;5107986;28;20050;-59
2022/05/28 12:09:57;;;;;;;3.50;0.90;;;24.40;40.50;;;;;;5074199;28;20038;-52
2022/05/28 12:12:35;;;;;;;7.97;1.42;;;24.30;38.50;;;;;;5109582;28;20040;-55
2022/05/28 12:15:21;;;;;;;4.78;1.20;;;23.60;33.70;;;;;;5111822;28;20035;-51
2022/05/28 12:18:23;;;;;;;4.25;1.00;;;23.10;40.20;;;;;;5111949;28;20603;-59
2022/05/28 12:20:58;;;;;;;3.28;0.95;;;23.30;33.90;;;;;;5091150;28;20039;-57
2022/05/28 12:23:37;;;;;;;5.38;1.30;;;23.40;35.60;;;;;;5107779;28;20030;-60
2022/05/28 12:26:14;;;;;;;;;;;23.00;37.50;;;;;;5112375;28;20442;-52
2022/05/28 12:28:49;;;;;;;6.00;1.27;;;22.60;39.30;;;;;;5103971;28;19923;-56
2022/05/28 12:31:26;;;;;;;4.63;1.25;;;22.30;39.90;;;;;;5091458;28;20496;-57
2022/05/28 12:33:55;;;;;;;6.35;1.40;;;22.20;42.30;;;;;;5105674;28;20037;-44
2022/05/28 12:36:32;;;;;;;6.43;1.48;;;22.10;40.10;;;;;;5091611;28;20063;-43
2022/05/28 12:39:13;;;;;;;5.88;1.20;;;22.10;44.20;;;;;;5091498;28;20024;-49
2022/05/28 12:41:39;;;;;;;6.78;1.20;;;21.90;44.60;;;;;;5096235;28;20109;-50
2022/05/28 12:44:26;;;;;;;4.38;1.10;;;22.00;42.00;;;;;;5099554;28;20102;-51
2022/05/28 12:46:59;;;;;;;3.88;1.20;;;22.20;44.60;;;;;;5093428;28;20038;-57
2022/05/28 12:49:44;;;;;;;5.15;1.00;;;22.10;41.00;;;;;;5076385;28;20043;-56
2022/05/28 12:52:21;;;;;;;4.50;1.10;;;22.30;45.10;;;;;;5096307;28;20044;-58
2022/05/28 12:54:59;;;;;;;3.90;1.02;;;22.40;46.10;;;;;;5090268;28;20103;-57
2022/05/28 12:57:34;;;;;;;5.32;1.02;;;22.50;41.10;;;;;;5096664;28;20081;-52
2022/05/28 13:00:07;;;;;;;4.57;1.20;;;21.70;41.30;;;;;;5099401;28;20031;-59
2022/05/28 13:02:39;;;;;;;4.53;1.33;;;22.00;44.00;;;;;;5101544;28;20027;-57
2022/05/28 13:05:16;;;;;;;7.03;1.52;;;22.00;40.30;;;;;;5099877;28;20024;-57
2022/05/28 13:07:54;;;;;;;6.90;1.20;;;22.00;41.10;;;;;;5085713;28;20028;-50
2022/05/28 13:10:26;;;;;;;10.50;1.38;;;21.90;39.60;;;;;;5093852;28;20031;-49
2022/05/28 13:13:07;;;;;;;4.63;1.33;;;21.90;42.30;;;;;;5099400;28;20040;-47
2022/05/28 13:15:53;;;;;;;6.65;1.50;;;21.90;42.90;;;;;;5099818;28;20036;-46
2022/05/28 13:19:00;;;;;;;5.53;1.30;;;21.70;45.80;;;;;;5103747;28;20114;-46
2022/05/28 13:21:54;;;;;;;4.70;1.25;;;21.60;43.60;;;;;;5086779;28;20038;-52